sensor_id;sensor_type;location;lat;lon;timestamp;P1;durP1;ratioP1;P2;durP2;ratioP2
39190;SDS011;24916;51.676;6.614;2024-03-08T00:00:45;6.88;;;6.18;;
39190;SDS011;24916;51.676;6.614;2024-03-08T00:03:11;6.90;;;6.20;;
39190;SDS011;24916;51.676;6.614;2024-03-08T00:05:36;8.43;;;6.32;;
39190;SDS011;24916;51.676;6.614;2024-03-08T00:08:03;7.00;;;5.97;;
39190;SDS011;24916;51.676;6.614;2024-03-08T00:10:29;6.57;;;5.97;;
39190;SDS011;24916;51.676;6.614;2024-03-08T00:12:54;6.97;;;6.07;;
39190;SDS011;24916;51.676;6.614;2024-03-08T00:15:20;6.50;;;5.72;;
39190;SDS011;24916;51.676;6.614;2024-03-08T00:17:48;6.45;;;5.82;;
39190;SDS011;24916;51.676;6.614;2024-03-08T00:20:13;6.15;;;5.65;;
39190;SDS011;24916;51.676;6.614;2024-03-08T00:22:38;6.68;;;6.05;;
39190;SDS011;24916;51.676;6.614;2024-03-08T00:25:04;6.28;;;5.53;;
39190;SDS011;24916;51.676;6.614;2024-03-08T00:27:29;6.97;;;5.97;;
39190;SDS011;24916;51.676;6.614;2024-03-08T00:29:58;6.47;;;5.78;;
39190;SDS011;24916;51.676;6.614;2024-03-08T00:32:23;8.35;;;6.13;;
39190;SDS011;24916;51.676;6.614;2024-03-08T00:34:56;6.97;;;5.90;;
39190;SDS011;24916;51.676;6.614;2024-03-08T00:37:22;6.03;;;5.43;;
39190;SDS011;24916;51.676;6.614;2024-03-08T00:39:47;6.50;;;5.90;;
39190;SDS011;24916;51.676;6.614;2024-03-08T00:42:14;6.30;;;5.70;;
39190;SDS011;24916;51.676;6.614;2024-03-08T00:44:39;6.88;;;6.22;;
39190;SDS011;24916;51.676;6.614;2024-03-08T00:47:05;6.78;;;5.60;;
39190;SDS011;24916;51.676;6.614;2024-03-08T00:49:30;6.57;;;5.97;;
39190;SDS011;24916;51.676;6.614;2024-03-08T00:51:55;6.78;;;5.93;;
39190;SDS011;24916;51.676;6.614;2024-03-08T00:54:21;5.97;;;5.38;;
39190;SDS011;24916;51.676;6.614;2024-03-08T00:56:46;6.50;;;5.90;;
39190;SDS011;24916;51.676;6.614;2024-03-08T00:59:11;6.90;;;5.93;;
39190;SDS011;24916;51.676;6.614;2024-03-08T01:01:39;7.53;;;6.30;;
39190;SDS011;24916;51.676;6.614;2024-03-08T01:04:04;6.63;;;6.00;;
39190;SDS011;24916;51.676;6.614;2024-03-08T01:06:29;6.30;;;5.70;;
39190;SDS011;24916;51.676;6.614;2024-03-08T01:08:55;6.72;;;6.07;;
39190;SDS011;24916;51.676;6.614;2024-03-08T01:11:20;7.10;;;6.38;;
39190;SDS011;24916;51.676;6.614;2024-03-08T01:13:45;6.13;;;5.53;;
39190;SDS011;24916;51.676;6.614;2024-03-08T01:16:12;6.40;;;5.68;;
39190;SDS011;24916;51.676;6.614;2024-03-08T01:18:37;6.20;;;5.63;;
39190;SDS011;24916;51.676;6.614;2024-03-08T01:21:03;6.07;;;5.47;;
39190;SDS011;24916;51.676;6.614;2024-03-08T01:23:28;6.35;;;5.72;;
39190;SDS011;24916;51.676;6.614;2024-03-08T01:25:54;6.90;;;6.20;;
39190;SDS011;24916;51.676;6.614;2024-03-08T01:28:25;6.60;;;6.00;;
39190;SDS011;24916;51.676;6.614;2024-03-08T01:30:50;7.45;;;6.30;;
39190;SDS011;24916;51.676;6.614;2024-03-08T01:33:20;10.52;;;6.35;;
39190;SDS011;24916;51.676;6.614;2024-03-08T01:35:47;6.75;;;6.15;;
39190;SDS011;24916;51.676;6.614;2024-03-08T01:38:12;6.75;;;6.15;;
39190;SDS011;24916;51.676;6.614;2024-03-08T01:40:38;6.03;;;5.43;;
39190;SDS011;24916;51.676;6.614;2024-03-08T01:43:39;6.82;;;6.20;;
39190;SDS011;24916;51.676;6.614;2024-03-08T01:45:58;7.10;;;6.40;;
39190;SDS011;24916;51.676;6.614;2024-03-08T01:48:27;7.18;;;5.88;;
39190;SDS011;24916;51.676;6.614;2024-03-08T01:50:52;7.68;;;6.35;;
39190;SDS011;24916;51.676;6.614;2024-03-08T01:53:19;6.35;;;5.75;;
39190;SDS011;24916;51.676;6.614;2024-03-08T01:55:45;6.47;;;5.88;;
39190;SDS011;24916;51.676;6.614;2024-03-08T01:58:11;6.63;;;6.00;;
39190;SDS011;24916;51.676;6.614;2024-03-08T02:00:38;6.10;;;5.57;;
39190;SDS011;24916;51.676;6.614;2024-03-08T02:03:05;6.78;;;6.18;;
39190;SDS011;24916;51.676;6.614;2024-03-08T02:05:31;7.03;;;6.43;;
39190;SDS011;24916;51.676;6.614;2024-03-08T02:07:57;7.05;;;6.35;;
39190;SDS011;24916;51.676;6.614;2024-03-08T02:10:22;7.10;;;6.40;;
39190;SDS011;24916;51.676;6.614;2024-03-08T02:12:47;6.53;;;5.93;;
39190;SDS011;24916;51.676;6.614;2024-03-08T02:15:13;7.20;;;6.50;;
39190;SDS011;24916;51.676;6.614;2024-03-08T02:17:38;6.63;;;5.97;;
39190;SDS011;24916;51.676;6.614;2024-03-08T02:20:04;6.82;;;6.22;;
39190;SDS011;24916;51.676;6.614;2024-03-08T02:22:30;7.28;;;6.15;;
39190;SDS011;24916;51.676;6.614;2024-03-08T02:24:55;6.78;;;6.18;;
39190;SDS011;24916;51.676;6.614;2024-03-08T02:27:24;6.25;;;5.65;;
39190;SDS011;24916;51.676;6.614;2024-03-08T02:29:50;7.28;;;6.40;;
39190;SDS011;24916;51.676;6.614;2024-03-08T02:32:16;7.20;;;6.50;;
39190;SDS011;24916;51.676;6.614;2024-03-08T02:34:41;7.22;;;6.53;;
39190;SDS011;24916;51.676;6.614;2024-03-08T02:37:06;7.50;;;6.55;;
39190;SDS011;24916;51.676;6.614;2024-03-08T02:39:35;7.25;;;6.22;;
39190;SDS011;24916;51.676;6.614;2024-03-08T02:42:00;7.00;;;6.30;;
39190;SDS011;24916;51.676;6.614;2024-03-08T02:44:26;6.70;;;6.10;;
39190;SDS011;24916;51.676;6.614;2024-03-08T02:46:52;7.70;;;6.78;;
39190;SDS011;24916;51.676;6.614;2024-03-08T02:49:20;7.03;;;6.43;;
39190;SDS011;24916;51.676;6.614;2024-03-08T02:51:45;7.32;;;6.35;;
39190;SDS011;24916;51.676;6.614;2024-03-08T02:54:11;7.38;;;6.63;;
39190;SDS011;24916;51.676;6.614;2024-03-08T02:56:36;6.90;;;6.30;;
39190;SDS011;24916;51.676;6.614;2024-03-08T02:59:01;6.80;;;6.17;;
39190;SDS011;24916;51.676;6.614;2024-03-08T03:01:27;7.43;;;6.82;;
39190;SDS011;24916;51.676;6.614;2024-03-08T03:03:52;7.30;;;6.35;;
39190;SDS011;24916;51.676;6.614;2024-03-08T03:06:18;7.15;;;6.43;;
39190;SDS011;24916;51.676;6.614;2024-03-08T03:08:46;7.45;;;6.75;;
39190;SDS011;24916;51.676;6.614;2024-03-08T03:11:11;7.63;;;6.93;;
39190;SDS011;24916;51.676;6.614;2024-03-08T03:13:38;7.40;;;6.70;;
39190;SDS011;24916;51.676;6.614;2024-03-08T03:16:03;7.32;;;6.63;;
39190;SDS011;24916;51.676;6.614;2024-03-08T03:18:29;7.28;;;6.57;;
39190;SDS011;24916;51.676;6.614;2024-03-08T03:20:54;7.07;;;6.37;;
39190;SDS011;24916;51.676;6.614;2024-03-08T03:23:19;7.68;;;6.88;;
39190;SDS011;24916;51.676;6.614;2024-03-08T03:25:45;7.38;;;6.70;;
39190;SDS011;24916;51.676;6.614;2024-03-08T03:28:11;7.35;;;6.65;;
39190;SDS011;24916;51.676;6.614;2024-03-08T03:30:39;7.40;;;6.70;;
39190;SDS011;24916;51.676;6.614;2024-03-08T03:33:04;7.13;;;6.53;;
39190;SDS011;24916;51.676;6.614;2024-03-08T03:35:33;7.72;;;7.03;;
39190;SDS011;24916;51.676;6.614;2024-03-08T03:37:59;8.02;;;6.75;;
39190;SDS011;24916;51.676;6.614;2024-03-08T03:40:30;7.57;;;6.78;;
39190;SDS011;24916;51.676;6.614;2024-03-08T03:42:56;7.40;;;6.75;;
39190;SDS011;24916;51.676;6.614;2024-03-08T03:45:21;8.55;;;7.10;;
39190;SDS011;24916;51.676;6.614;2024-03-08T03:47:47;7.97;;;7.18;;
39190;SDS011;24916;51.676;6.614;2024-03-08T03:50:12;7.95;;;7.15;;
39190;SDS011;24916;51.676;6.614;2024-03-08T03:52:37;7.20;;;6.55;;
39190;SDS011;24916;51.676;6.614;2024-03-08T03:55:03;9.15;;;7.07;;
39190;SDS011;24916;51.676;6.614;2024-03-08T03:57:29;7.57;;;6.88;;
39190;SDS011;24916;51.676;6.614;2024-03-08T03:59:55;7.32;;;6.70;;
39190;SDS011;24916;51.676;6.614;2024-03-08T04:02:20;8.48;;;7.03;;
39190;SDS011;24916;51.676;6.614;2024-03-08T04:04:46;7.97;;;7.13;;
39190;SDS011;24916;51.676;6.614;2024-03-08T04:07:11;8.82;;;7.32;;
39190;SDS011;24916;51.676;6.614;2024-03-08T04:09:36;7.53;;;6.72;;
39190;SDS011;24916;51.676;6.614;2024-03-08T04:12:01;8.00;;;7.20;;
39190;SDS011;24916;51.676;6.614;2024-03-08T04:14:27;8.23;;;7.32;;
39190;SDS011;24916;51.676;6.614;2024-03-08T04:16:52;8.43;;;7.33;;
39190;SDS011;24916;51.676;6.614;2024-03-08T04:19:17;8.05;;;7.25;;
39190;SDS011;24916;51.676;6.614;2024-03-08T04:21:44;8.27;;;7.47;;
39190;SDS011;24916;51.676;6.614;2024-03-08T04:24:09;7.97;;;7.18;;
39190;SDS011;24916;51.676;6.614;2024-03-08T04:26:34;8.60;;;7.80;;
39190;SDS011;24916;51.676;6.614;2024-03-08T04:28:59;7.40;;;6.43;;
39190;SDS011;24916;51.676;6.614;2024-03-08T04:31:25;7.68;;;6.97;;
39190;SDS011;24916;51.676;6.614;2024-03-08T04:33:51;8.30;;;7.50;;
39190;SDS011;24916;51.676;6.614;2024-03-08T04:36:17;8.00;;;7.30;;
39190;SDS011;24916;51.676;6.614;2024-03-08T04:38:42;8.00;;;7.20;;
39190;SDS011;24916;51.676;6.614;2024-03-08T04:41:07;8.35;;;7.55;;
39190;SDS011;24916;51.676;6.614;2024-03-08T04:43:33;7.72;;;7.00;;
39190;SDS011;24916;51.676;6.614;2024-03-08T04:45:58;8.82;;;8.02;;
39190;SDS011;24916;51.676;6.614;2024-03-08T04:48:23;7.72;;;7.00;;
39190;SDS011;24916;51.676;6.614;2024-03-08T04:50:51;8.85;;;7.82;;
39190;SDS011;24916;51.676;6.614;2024-03-08T04:53:16;7.88;;;7.07;;
39190;SDS011;24916;51.676;6.614;2024-03-08T04:55:42;8.23;;;7.38;;
39190;SDS011;24916;51.676;6.614;2024-03-08T04:58:08;7.95;;;7.15;;
39190;SDS011;24916;51.676;6.614;2024-03-08T05:00:33;8.55;;;7.65;;
39190;SDS011;24916;51.676;6.614;2024-03-08T05:02:58;7.83;;;7.13;;
39190;SDS011;24916;51.676;6.614;2024-03-08T05:05:23;8.10;;;7.30;;
39190;SDS011;24916;51.676;6.614;2024-03-08T05:07:49;7.50;;;6.80;;
39190;SDS011;24916;51.676;6.614;2024-03-08T05:10:15;8.02;;;7.32;;
39190;SDS011;24916;51.676;6.614;2024-03-08T05:12:42;7.97;;;7.28;;
39190;SDS011;24916;51.676;6.614;2024-03-08T05:15:08;7.82;;;7.13;;
39190;SDS011;24916;51.676;6.614;2024-03-08T05:17:33;8.07;;;7.28;;
39190;SDS011;24916;51.676;6.614;2024-03-08T05:19:59;7.78;;;7.07;;
39190;SDS011;24916;51.676;6.614;2024-03-08T05:22:24;7.97;;;7.27;;
39190;SDS011;24916;51.676;6.614;2024-03-08T05:24:49;8.77;;;7.97;;
39190;SDS011;24916;51.676;6.614;2024-03-08T05:27:15;8.25;;;7.55;;
39190;SDS011;24916;51.676;6.614;2024-03-08T05:29:41;7.68;;;7.05;;
39190;SDS011;24916;51.676;6.614;2024-03-08T05:32:06;8.10;;;7.40;;
39190;SDS011;24916;51.676;6.614;2024-03-08T05:34:32;7.75;;;7.05;;
39190;SDS011;24916;51.676;6.614;2024-03-08T05:36:57;8.65;;;7.80;;
39190;SDS011;24916;51.676;6.614;2024-03-08T05:39:23;8.48;;;7.60;;
39190;SDS011;24916;51.676;6.614;2024-03-08T05:41:49;8.48;;;7.68;;
39190;SDS011;24916;51.676;6.614;2024-03-08T05:44:14;8.02;;;7.32;;
39190;SDS011;24916;51.676;6.614;2024-03-08T05:46:39;8.88;;;7.97;;
39190;SDS011;24916;51.676;6.614;2024-03-08T05:49:05;8.43;;;7.50;;
39190;SDS011;24916;51.676;6.614;2024-03-08T05:51:33;8.60;;;7.63;;
39190;SDS011;24916;51.676;6.614;2024-03-08T05:54:00;8.55;;;7.75;;
39190;SDS011;24916;51.676;6.614;2024-03-08T05:56:26;8.65;;;7.85;;
39190;SDS011;24916;51.676;6.614;2024-03-08T05:58:51;9.60;;;8.23;;
39190;SDS011;24916;51.676;6.614;2024-03-08T06:01:16;8.40;;;7.70;;
39190;SDS011;24916;51.676;6.614;2024-03-08T06:03:41;9.18;;;8.32;;
39190;SDS011;24916;51.676;6.614;2024-03-08T06:06:13;8.25;;;7.38;;
39190;SDS011;24916;51.676;6.614;2024-03-08T06:08:39;8.00;;;7.20;;
39190;SDS011;24916;51.676;6.614;2024-03-08T06:11:04;8.50;;;7.68;;
39190;SDS011;24916;51.676;6.614;2024-03-08T06:13:31;8.73;;;7.93;;
39190;SDS011;24916;51.676;6.614;2024-03-08T06:15:56;8.80;;;7.90;;
39190;SDS011;24916;51.676;6.614;2024-03-08T06:18:21;7.90;;;7.20;;
39190;SDS011;24916;51.676;6.614;2024-03-08T06:20:47;9.23;;;8.05;;
39190;SDS011;24916;51.676;6.614;2024-03-08T06:23:12;8.57;;;7.78;;
39190;SDS011;24916;51.676;6.614;2024-03-08T06:25:37;8.18;;;7.47;;
39190;SDS011;24916;51.676;6.614;2024-03-08T06:28:03;8.75;;;7.82;;
39190;SDS011;24916;51.676;6.614;2024-03-08T06:30:28;8.60;;;7.63;;
39190;SDS011;24916;51.676;6.614;2024-03-08T06:32:53;8.43;;;7.63;;
39190;SDS011;24916;51.676;6.614;2024-03-08T06:35:19;8.52;;;7.80;;
39190;SDS011;24916;51.676;6.614;2024-03-08T06:37:45;8.85;;;7.95;;
39190;SDS011;24916;51.676;6.614;2024-03-08T06:40:10;7.97;;;7.25;;
39190;SDS011;24916;51.676;6.614;2024-03-08T06:42:39;8.60;;;7.80;;
39190;SDS011;24916;51.676;6.614;2024-03-08T06:45:04;8.05;;;7.35;;
39190;SDS011;24916;51.676;6.614;2024-03-08T06:47:33;8.70;;;7.90;;
39190;SDS011;24916;51.676;6.614;2024-03-08T06:49:59;8.50;;;7.63;;
39190;SDS011;24916;51.676;6.614;2024-03-08T06:52:24;8.75;;;7.47;;
39190;SDS011;24916;51.676;6.614;2024-03-08T06:54:49;8.00;;;7.25;;
39190;SDS011;24916;51.676;6.614;2024-03-08T06:57:17;7.93;;;7.22;;
39190;SDS011;24916;51.676;6.614;2024-03-08T06:59:42;8.48;;;7.22;;
39190;SDS011;24916;51.676;6.614;2024-03-08T07:02:08;8.55;;;7.32;;
39190;SDS011;24916;51.676;6.614;2024-03-08T07:04:36;7.60;;;6.80;;
39190;SDS011;24916;51.676;6.614;2024-03-08T07:07:03;8.38;;;6.70;;
39190;SDS011;24916;51.676;6.614;2024-03-08T07:09:29;7.55;;;6.80;;
39190;SDS011;24916;51.676;6.614;2024-03-08T07:11:54;7.53;;;6.83;;
39190;SDS011;24916;51.676;6.614;2024-03-08T07:14:23;8.20;;;7.28;;
39190;SDS011;24916;51.676;6.614;2024-03-08T07:16:48;6.82;;;6.22;;
39190;SDS011;24916;51.676;6.614;2024-03-08T07:19:14;7.28;;;6.57;;
39190;SDS011;24916;51.676;6.614;2024-03-08T07:21:40;7.93;;;6.07;;
39190;SDS011;24916;51.676;6.614;2024-03-08T07:24:06;7.40;;;6.70;;
39190;SDS011;24916;51.676;6.614;2024-03-08T07:26:58;7.82;;;7.13;;
39190;SDS011;24916;51.676;6.614;2024-03-08T07:29:24;7.88;;;7.18;;
39190;SDS011;24916;51.676;6.614;2024-03-08T07:31:50;8.75;;;7.85;;
39190;SDS011;24916;51.676;6.614;2024-03-08T07:34:21;8.02;;;7.22;;
39190;SDS011;24916;51.676;6.614;2024-03-08T07:36:46;8.07;;;7.38;;
39190;SDS011;24916;51.676;6.614;2024-03-08T07:39:11;8.32;;;7.57;;
39190;SDS011;24916;51.676;6.614;2024-03-08T07:41:39;9.23;;;8.32;;
39190;SDS011;24916;51.676;6.614;2024-03-08T07:44:08;9.30;;;7.95;;
39190;SDS011;24916;51.676;6.614;2024-03-08T07:46:34;9.65;;;8.50;;
39190;SDS011;24916;51.676;6.614;2024-03-08T07:48:59;9.15;;;8.25;;
39190;SDS011;24916;51.676;6.614;2024-03-08T07:51:24;8.90;;;8.10;;
39190;SDS011;24916;51.676;6.614;2024-03-08T07:53:50;9.70;;;8.48;;
39190;SDS011;24916;51.676;6.614;2024-03-08T07:56:15;10.03;;;9.03;;
39190;SDS011;24916;51.676;6.614;2024-03-08T07:58:43;10.25;;;8.70;;
39190;SDS011;24916;51.676;6.614;2024-03-08T08:01:15;9.88;;;8.88;;
39190;SDS011;24916;51.676;6.614;2024-03-08T08:03:40;9.25;;;8.35;;
39190;SDS011;24916;51.676;6.614;2024-03-08T08:06:07;9.80;;;8.88;;
39190;SDS011;24916;51.676;6.614;2024-03-08T08:08:32;9.38;;;8.48;;
39190;SDS011;24916;51.676;6.614;2024-03-08T08:10:57;9.60;;;8.70;;
39190;SDS011;24916;51.676;6.614;2024-03-08T08:13:23;10.32;;;8.43;;
39190;SDS011;24916;51.676;6.614;2024-03-08T08:15:48;9.23;;;8.43;;
39190;SDS011;24916;51.676;6.614;2024-03-08T08:18:14;9.68;;;8.77;;
39190;SDS011;24916;51.676;6.614;2024-03-08T08:20:39;9.05;;;8.23;;
39190;SDS011;24916;51.676;6.614;2024-03-08T08:23:04;10.53;;;8.93;;
39190;SDS011;24916;51.676;6.614;2024-03-08T08:25:29;9.30;;;8.50;;
39190;SDS011;24916;51.676;6.614;2024-03-08T08:27:54;9.57;;;8.67;;
39190;SDS011;24916;51.676;6.614;2024-03-08T08:30:20;10.23;;;9.23;;
39190;SDS011;24916;51.676;6.614;2024-03-08T08:32:45;9.70;;;8.70;;
39190;SDS011;24916;51.676;6.614;2024-03-08T08:35:12;9.25;;;8.35;;
39190;SDS011;24916;51.676;6.614;2024-03-08T08:37:40;9.77;;;8.77;;
39190;SDS011;24916;51.676;6.614;2024-03-08T08:40:06;11.23;;;8.73;;
39190;SDS011;24916;51.676;6.614;2024-03-08T08:42:35;9.48;;;8.60;;
39190;SDS011;24916;51.676;6.614;2024-03-08T08:45:00;9.57;;;8.57;;
39190;SDS011;24916;51.676;6.614;2024-03-08T08:47:26;9.48;;;8.57;;
39190;SDS011;24916;51.676;6.614;2024-03-08T08:49:52;9.80;;;8.90;;
39190;SDS011;24916;51.676;6.614;2024-03-08T08:52:17;9.18;;;8.30;;
39190;SDS011;24916;51.676;6.614;2024-03-08T08:54:43;10.02;;;8.80;;
39190;SDS011;24916;51.676;6.614;2024-03-08T08:57:09;9.70;;;8.73;;
39190;SDS011;24916;51.676;6.614;2024-03-08T08:59:35;9.80;;;8.85;;
39190;SDS011;24916;51.676;6.614;2024-03-08T09:02:01;12.75;;;9.43;;
39190;SDS011;24916;51.676;6.614;2024-03-08T09:04:26;9.93;;;9.02;;
39190;SDS011;24916;51.676;6.614;2024-03-08T09:06:52;9.75;;;8.93;;
39190;SDS011;24916;51.676;6.614;2024-03-08T09:09:17;9.93;;;8.93;;
39190;SDS011;24916;51.676;6.614;2024-03-08T09:11:42;9.48;;;8.57;;
39190;SDS011;24916;51.676;6.614;2024-03-08T09:14:08;10.52;;;9.43;;
39190;SDS011;24916;51.676;6.614;2024-03-08T09:16:33;10.43;;;9.30;;
39190;SDS011;24916;51.676;6.614;2024-03-08T09:18:59;10.05;;;9.15;;
39190;SDS011;24916;51.676;6.614;2024-03-08T09:21:24;10.02;;;9.05;;
39190;SDS011;24916;51.676;6.614;2024-03-08T09:23:50;11.60;;;9.77;;
39190;SDS011;24916;51.676;6.614;2024-03-08T09:26:15;10.10;;;9.10;;
39190;SDS011;24916;51.676;6.614;2024-03-08T09:28:40;10.35;;;9.45;;
39190;SDS011;24916;51.676;6.614;2024-03-08T09:31:06;10.25;;;9.20;;
39190;SDS011;24916;51.676;6.614;2024-03-08T09:33:31;10.75;;;9.68;;
39190;SDS011;24916;51.676;6.614;2024-03-08T09:35:56;10.85;;;9.85;;
39190;SDS011;24916;51.676;6.614;2024-03-08T09:38:22;10.93;;;9.82;;
39190;SDS011;24916;51.676;6.614;2024-03-08T09:40:47;10.40;;;9.40;;
39190;SDS011;24916;51.676;6.614;2024-03-08T09:43:13;11.02;;;9.93;;
39190;SDS011;24916;51.676;6.614;2024-03-08T09:45:38;12.10;;;9.80;;
39190;SDS011;24916;51.676;6.614;2024-03-08T09:48:06;11.70;;;10.50;;
39190;SDS011;24916;51.676;6.614;2024-03-08T09:50:36;10.23;;;9.23;;
39190;SDS011;24916;51.676;6.614;2024-03-08T09:53:01;10.88;;;9.90;;
39190;SDS011;24916;51.676;6.614;2024-03-08T09:55:27;10.82;;;9.82;;
39190;SDS011;24916;51.676;6.614;2024-03-08T09:57:56;10.35;;;9.30;;
39190;SDS011;24916;51.676;6.614;2024-03-08T10:00:46;10.13;;;9.18;;
39190;SDS011;24916;51.676;6.614;2024-03-08T10:03:12;10.77;;;9.68;;
39190;SDS011;24916;51.676;6.614;2024-03-08T10:05:39;11.02;;;9.93;;
39190;SDS011;24916;51.676;6.614;2024-03-08T10:08:04;10.57;;;9.57;;
39190;SDS011;24916;51.676;6.614;2024-03-08T10:10:33;10.57;;;9.57;;
39190;SDS011;24916;51.676;6.614;2024-03-08T10:12:58;9.68;;;8.77;;
39190;SDS011;24916;51.676;6.614;2024-03-08T10:15:26;12.07;;;9.05;;
39190;SDS011;24916;51.676;6.614;2024-03-08T10:17:53;10.25;;;9.25;;
39190;SDS011;24916;51.676;6.614;2024-03-08T10:20:18;9.48;;;8.60;;
39190;SDS011;24916;51.676;6.614;2024-03-08T10:22:44;10.75;;;9.73;;
39190;SDS011;24916;51.676;6.614;2024-03-08T10:25:12;10.68;;;9.30;;
39190;SDS011;24916;51.676;6.614;2024-03-08T10:27:38;10.15;;;9.15;;
39190;SDS011;24916;51.676;6.614;2024-03-08T10:30:05;10.52;;;9.52;;
39190;SDS011;24916;51.676;6.614;2024-03-08T10:32:33;9.43;;;8.50;;
39190;SDS011;24916;51.676;6.614;2024-03-08T10:34:58;10.48;;;9.35;;
39190;SDS011;24916;51.676;6.614;2024-03-08T10:37:24;9.65;;;8.85;;
39190;SDS011;24916;51.676;6.614;2024-03-08T10:40:02;11.25;;;10.00;;
39190;SDS011;24916;51.676;6.614;2024-03-08T10:42:35;10.88;;;8.65;;
39190;SDS011;24916;51.676;6.614;2024-03-08T10:45:15;9.88;;;8.88;;
39190;SDS011;24916;51.676;6.614;2024-03-08T10:47:41;9.60;;;8.70;;
39190;SDS011;24916;51.676;6.614;2024-03-08T10:52:32;9.18;;;8.30;;
39190;SDS011;24916;51.676;6.614;2024-03-08T10:54:58;9.60;;;8.70;;
39190;SDS011;24916;51.676;6.614;2024-03-08T10:57:24;9.45;;;8.48;;
39190;SDS011;24916;51.676;6.614;2024-03-08T10:59:49;10.00;;;8.57;;
39190;SDS011;24916;51.676;6.614;2024-03-08T11:02:16;8.38;;;7.68;;
39190;SDS011;24916;51.676;6.614;2024-03-08T11:04:50;9.10;;;8.30;;
39190;SDS011;24916;51.676;6.614;2024-03-08T11:07:16;8.18;;;7.30;;
39190;SDS011;24916;51.676;6.614;2024-03-08T11:09:45;8.48;;;7.68;;
39190;SDS011;24916;51.676;6.614;2024-03-08T11:12:22;8.13;;;7.32;;
39190;SDS011;24916;51.676;6.614;2024-03-08T11:14:50;8.45;;;7.57;;
39190;SDS011;24916;51.676;6.614;2024-03-08T11:17:16;8.40;;;7.10;;
39190;SDS011;24916;51.676;6.614;2024-03-08T11:19:45;8.30;;;7.60;;
39190;SDS011;24916;51.676;6.614;2024-03-08T11:22:13;7.53;;;6.63;;
39190;SDS011;24916;51.676;6.614;2024-03-08T11:24:45;7.63;;;6.93;;
39190;SDS011;24916;51.676;6.614;2024-03-08T11:27:10;6.72;;;6.03;;
39190;SDS011;24916;51.676;6.614;2024-03-08T11:29:36;9.15;;;6.55;;
39190;SDS011;24916;51.676;6.614;2024-03-08T11:34:35;6.60;;;6.00;;
39190;SDS011;24916;51.676;6.614;2024-03-08T11:37:03;6.53;;;5.93;;
39190;SDS011;24916;51.676;6.614;2024-03-08T11:39:28;6.78;;;5.90;;
39190;SDS011;24916;51.676;6.614;2024-03-08T11:41:55;6.53;;;5.82;;
39190;SDS011;24916;51.676;6.614;2024-03-08T11:44:20;5.95;;;5.40;;
39190;SDS011;24916;51.676;6.614;2024-03-08T11:46:46;6.35;;;5.75;;
39190;SDS011;24916;51.676;6.614;2024-03-08T11:49:14;6.00;;;5.38;;
39190;SDS011;24916;51.676;6.614;2024-03-08T11:51:40;6.40;;;5.63;;
39190;SDS011;24916;51.676;6.614;2024-03-08T11:54:06;5.63;;;5.13;;
39190;SDS011;24916;51.676;6.614;2024-03-08T11:56:31;5.75;;;5.28;;
39190;SDS011;24916;51.676;6.614;2024-03-08T11:58:57;5.97;;;5.40;;
39190;SDS011;24916;51.676;6.614;2024-03-08T12:01:22;5.82;;;5.22;;
39190;SDS011;24916;51.676;6.614;2024-03-08T12:03:55;6.00;;;5.40;;
39190;SDS011;24916;51.676;6.614;2024-03-08T12:06:23;6.45;;;5.13;;
39190;SDS011;24916;51.676;6.614;2024-03-08T12:08:49;6.28;;;5.68;;
39190;SDS011;24916;51.676;6.614;2024-03-08T12:11:14;6.90;;;6.17;;
39190;SDS011;24916;51.676;6.614;2024-03-08T12:13:39;6.82;;;5.88;;
39190;SDS011;24916;51.676;6.614;2024-03-08T12:16:06;6.72;;;6.13;;
39190;SDS011;24916;51.676;6.614;2024-03-08T12:18:35;7.32;;;5.97;;
39190;SDS011;24916;51.676;6.614;2024-03-08T12:21:04;7.38;;;6.68;;
39190;SDS011;24916;51.676;6.614;2024-03-08T12:23:29;7.03;;;6.32;;
39190;SDS011;24916;51.676;6.614;2024-03-08T12:25:54;7.60;;;6.75;;
39190;SDS011;24916;51.676;6.614;2024-03-08T12:28:19;7.53;;;6.70;;
39190;SDS011;24916;51.676;6.614;2024-03-08T12:30:47;8.65;;;7.95;;
39190;SDS011;24916;51.676;6.614;2024-03-08T12:33:13;9.27;;;7.95;;
39190;SDS011;24916;51.676;6.614;2024-03-08T12:35:38;9.00;;;8.10;;
39190;SDS011;24916;51.676;6.614;2024-03-08T12:38:04;9.45;;;8.55;;
39190;SDS011;24916;51.676;6.614;2024-03-08T12:40:32;9.30;;;8.50;;
39190;SDS011;24916;51.676;6.614;2024-03-08T12:42:57;10.10;;;9.10;;
39190;SDS011;24916;51.676;6.614;2024-03-08T12:45:23;10.20;;;9.05;;
39190;SDS011;24916;51.676;6.614;2024-03-08T12:47:55;9.75;;;8.75;;
39190;SDS011;24916;51.676;6.614;2024-03-08T12:50:23;9.30;;;8.50;;
39190;SDS011;24916;51.676;6.614;2024-03-08T12:52:52;10.07;;;9.18;;
39190;SDS011;24916;51.676;6.614;2024-03-08T12:55:21;9.82;;;8.95;;
39190;SDS011;24916;51.676;6.614;2024-03-08T12:57:46;10.05;;;9.05;;
39190;SDS011;24916;51.676;6.614;2024-03-08T13:00:12;10.50;;;9.48;;
39190;SDS011;24916;51.676;6.614;2024-03-08T13:02:48;10.63;;;9.52;;
39190;SDS011;24916;51.676;6.614;2024-03-08T13:05:16;9.88;;;8.98;;
39190;SDS011;24916;51.676;6.614;2024-03-08T13:07:41;10.38;;;9.25;;
39190;SDS011;24916;51.676;6.614;2024-03-08T13:10:11;10.27;;;9.38;;
39190;SDS011;24916;51.676;6.614;2024-03-08T13:12:39;9.63;;;8.68;;
39190;SDS011;24916;51.676;6.614;2024-03-08T13:15:04;10.27;;;9.38;;
39190;SDS011;24916;51.676;6.614;2024-03-08T13:17:30;10.55;;;9.57;;
39190;SDS011;24916;51.676;6.614;2024-03-08T13:19:55;10.55;;;9.60;;
39190;SDS011;24916;51.676;6.614;2024-03-08T13:22:22;10.43;;;9.43;;
39190;SDS011;24916;51.676;6.614;2024-03-08T13:24:49;10.50;;;9.55;;
39190;SDS011;24916;51.676;6.614;2024-03-08T13:27:14;10.27;;;9.27;;
39190;SDS011;24916;51.676;6.614;2024-03-08T13:29:47;10.38;;;9.38;;
39190;SDS011;24916;51.676;6.614;2024-03-08T13:32:13;10.38;;;9.48;;
39190;SDS011;24916;51.676;6.614;2024-03-08T13:34:42;11.32;;;9.45;;
39190;SDS011;24916;51.676;6.614;2024-03-08T13:37:07;12.45;;;9.73;;
39190;SDS011;24916;51.676;6.614;2024-03-08T13:39:34;10.57;;;9.27;;
39190;SDS011;24916;51.676;6.614;2024-03-08T13:42:08;10.18;;;9.25;;
39190;SDS011;24916;51.676;6.614;2024-03-08T13:44:38;10.40;;;9.50;;
39190;SDS011;24916;51.676;6.614;2024-03-08T13:47:04;10.20;;;9.20;;
39190;SDS011;24916;51.676;6.614;2024-03-08T13:49:29;10.30;;;8.82;;
39190;SDS011;24916;51.676;6.614;2024-03-08T13:51:55;10.38;;;9.05;;
39190;SDS011;24916;51.676;6.614;2024-03-08T13:54:20;11.63;;;9.20;;
39190;SDS011;24916;51.676;6.614;2024-03-08T13:56:46;10.68;;;9.43;;
39190;SDS011;24916;51.676;6.614;2024-03-08T13:59:11;12.63;;;9.15;;
39190;SDS011;24916;51.676;6.614;2024-03-08T14:01:37;12.33;;;8.70;;
39190;SDS011;24916;51.676;6.614;2024-03-08T14:04:02;11.75;;;9.52;;
39190;SDS011;24916;51.676;6.614;2024-03-08T14:06:28;10.57;;;8.38;;
39190;SDS011;24916;51.676;6.614;2024-03-08T14:08:55;10.57;;;8.48;;
39190;SDS011;24916;51.676;6.614;2024-03-08T14:11:22;11.43;;;8.52;;
39190;SDS011;24916;51.676;6.614;2024-03-08T14:13:49;9.80;;;8.27;;
39190;SDS011;24916;51.676;6.614;2024-03-08T14:16:14;12.00;;;8.48;;
39190;SDS011;24916;51.676;6.614;2024-03-08T14:18:40;9.75;;;8.10;;
39190;SDS011;24916;51.676;6.614;2024-03-08T14:21:06;9.52;;;7.88;;
39190;SDS011;24916;51.676;6.614;2024-03-08T14:23:33;9.43;;;8.10;;
39190;SDS011;24916;51.676;6.614;2024-03-08T14:25:59;9.23;;;7.82;;
39190;SDS011;24916;51.676;6.614;2024-03-08T14:28:24;8.57;;;7.63;;
39190;SDS011;24916;51.676;6.614;2024-03-08T14:30:50;9.00;;;7.80;;
39190;SDS011;24916;51.676;6.614;2024-03-08T14:33:15;8.02;;;7.22;;
39190;SDS011;24916;51.676;6.614;2024-03-08T14:35:41;7.80;;;7.10;;
39190;SDS011;24916;51.676;6.614;2024-03-08T14:38:08;9.35;;;7.53;;
39190;SDS011;24916;51.676;6.614;2024-03-08T14:40:33;9.10;;;7.60;;
39190;SDS011;24916;51.676;6.614;2024-03-08T14:42:58;8.82;;;7.75;;
39190;SDS011;24916;51.676;6.614;2024-03-08T14:45:24;8.77;;;7.88;;